sensor_id;sensor_type;location;lat;lon;timestamp;P1;durP1;ratioP1;P2;durP2;ratioP2
28802;SDS011;15949;55.656;37.422;2023-11-22T00:02:44;7.88;;;4.38;;
28802;SDS011;15949;55.656;37.422;2023-11-22T00:07:49;8.77;;;4.53;;
28802;SDS011;15949;55.656;37.422;2023-11-22T00:12:55;8.70;;;4.53;;
28802;SDS011;15949;55.656;37.422;2023-11-22T00:18:01;8.85;;;4.72;;
28802;SDS011;15949;55.656;37.422;2023-11-22T00:23:08;9.13;;;5.18;;
28802;SDS011;15949;55.656;37.422;2023-11-22T00:28:14;7.35;;;4.55;;
28802;SDS011;15949;55.656;37.422;2023-11-22T00:33:20;7.88;;;4.70;;
28802;SDS011;15949;55.656;37.422;2023-11-22T00:38:25;8.82;;;4.95;;
28802;SDS011;15949;55.656;37.422;2023-11-22T00:43:31;8.57;;;5.10;;
28802;SDS011;15949;55.656;37.422;2023-11-22T00:48:37;9.85;;;5.70;;
28802;SDS011;15949;55.656;37.422;2023-11-22T00:53:43;12.43;;;5.57;;
28802;SDS011;15949;55.656;37.422;2023-11-22T00:58:49;10.73;;;5.55;;
28802;SDS011;15949;55.656;37.422;2023-11-22T01:03:55;10.80;;;5.10;;
28802;SDS011;15949;55.656;37.422;2023-11-22T01:09:01;10.13;;;5.30;;
28802;SDS011;15949;55.656;37.422;2023-11-22T01:14:06;9.50;;;5.22;;
28802;SDS011;15949;55.656;37.422;2023-11-22T01:19:12;10.35;;;5.85;;
28802;SDS011;15949;55.656;37.422;2023-11-22T01:24:17;11.40;;;5.93;;
28802;SDS011;15949;55.656;37.422;2023-11-22T01:29:23;10.85;;;6.22;;
28802;SDS011;15949;55.656;37.422;2023-11-22T01:34:28;11.93;;;6.20;;
28802;SDS011;15949;55.656;37.422;2023-11-22T01:39:34;12.35;;;6.63;;
28802;SDS011;15949;55.656;37.422;2023-11-22T01:44:40;12.48;;;6.55;;
28802;SDS011;15949;55.656;37.422;2023-11-22T01:49:47;11.57;;;6.43;;
28802;SDS011;15949;55.656;37.422;2023-11-22T01:54:53;12.65;;;6.88;;
28802;SDS011;15949;55.656;37.422;2023-11-22T01:59:58;12.80;;;7.00;;
28802;SDS011;15949;55.656;37.422;2023-11-22T02:05:05;13.98;;;7.40;;
28802;SDS011;15949;55.656;37.422;2023-11-22T02:10:10;14.98;;;7.80;;
28802;SDS011;15949;55.656;37.422;2023-11-22T02:15:16;18.20;;;8.73;;
28802;SDS011;15949;55.656;37.422;2023-11-22T02:20:21;15.45;;;7.60;;
28802;SDS011;15949;55.656;37.422;2023-11-22T02:25:27;15.73;;;7.97;;
28802;SDS011;15949;55.656;37.422;2023-11-22T02:30:33;13.75;;;7.15;;
28802;SDS011;15949;55.656;37.422;2023-11-22T02:35:38;10.73;;;5.65;;
28802;SDS011;15949;55.656;37.422;2023-11-22T02:40:44;14.52;;;6.05;;
28802;SDS011;15949;55.656;37.422;2023-11-22T02:45:49;11.73;;;5.93;;
28802;SDS011;15949;55.656;37.422;2023-11-22T02:50:55;13.88;;;6.25;;
28802;SDS011;15949;55.656;37.422;2023-11-22T02:56:01;11.20;;;5.72;;
28802;SDS011;15949;55.656;37.422;2023-11-22T03:01:06;11.13;;;5.95;;
28802;SDS011;15949;55.656;37.422;2023-11-22T03:06:12;14.25;;;6.45;;
28802;SDS011;15949;55.656;37.422;2023-11-22T03:11:18;29.23;;;6.38;;
28802;SDS011;15949;55.656;37.422;2023-11-22T03:16:24;11.45;;;5.72;;
28802;SDS011;15949;55.656;37.422;2023-11-22T03:21:30;8.88;;;4.80;;
28802;SDS011;15949;55.656;37.422;2023-11-22T03:26:35;10.45;;;5.55;;
28802;SDS011;15949;55.656;37.422;2023-11-22T03:31:41;9.73;;;4.93;;
28802;SDS011;15949;55.656;37.422;2023-11-22T03:36:47;11.27;;;4.97;;
28802;SDS011;15949;55.656;37.422;2023-11-22T03:41:54;8.80;;;4.95;;
28802;SDS011;15949;55.656;37.422;2023-11-22T03:46:59;9.48;;;4.93;;
28802;SDS011;15949;55.656;37.422;2023-11-22T03:52:05;9.18;;;4.85;;
28802;SDS011;15949;55.656;37.422;2023-11-22T03:57:11;10.45;;;5.53;;
28802;SDS011;15949;55.656;37.422;2023-11-22T04:02:16;12.27;;;5.30;;
28802;SDS011;15949;55.656;37.422;2023-11-22T04:07:22;11.77;;;4.75;;
28802;SDS011;15949;55.656;37.422;2023-11-22T04:12:28;11.73;;;5.18;;
28802;SDS011;15949;55.656;37.422;2023-11-22T04:17:33;9.23;;;4.85;;
28802;SDS011;15949;55.656;37.422;2023-11-22T04:22:39;10.95;;;5.47;;
28802;SDS011;15949;55.656;37.422;2023-11-22T04:27:50;10.65;;;5.30;;
28802;SDS011;15949;55.656;37.422;2023-11-22T04:32:55;14.20;;;6.10;;
28802;SDS011;15949;55.656;37.422;2023-11-22T04:38:01;9.65;;;5.45;;
28802;SDS011;15949;55.656;37.422;2023-11-22T04:43:06;13.75;;;6.28;;
28802;SDS011;15949;55.656;37.422;2023-11-22T04:48:12;16.48;;;6.43;;
28802;SDS011;15949;55.656;37.422;2023-11-22T04:53:20;14.27;;;6.70;;
28802;SDS011;15949;55.656;37.422;2023-11-22T04:58:26;14.45;;;6.30;;
28802;SDS011;15949;55.656;37.422;2023-11-22T05:03:32;13.68;;;6.90;;
28802;SDS011;15949;55.656;37.422;2023-11-22T05:08:37;13.07;;;6.60;;
28802;SDS011;15949;55.656;37.422;2023-11-22T05:13:43;18.30;;;7.80;;
28802;SDS011;15949;55.656;37.422;2023-11-22T05:18:48;16.58;;;7.15;;
28802;SDS011;15949;55.656;37.422;2023-11-22T05:23:55;16.15;;;7.50;;
28802;SDS011;15949;55.656;37.422;2023-11-22T05:29:00;15.00;;;7.25;;
28802;SDS011;15949;55.656;37.422;2023-11-22T05:34:06;18.77;;;8.18;;
28802;SDS011;15949;55.656;37.422;2023-11-22T05:39:12;18.15;;;8.25;;
28802;SDS011;15949;55.656;37.422;2023-11-22T05:44:17;17.33;;;8.10;;
28802;SDS011;15949;55.656;37.422;2023-11-22T05:49:23;13.27;;;6.95;;
28802;SDS011;15949;55.656;37.422;2023-11-22T05:54:28;20.27;;;8.55;;
28802;SDS011;15949;55.656;37.422;2023-11-22T05:59:35;19.65;;;8.35;;
28802;SDS011;15949;55.656;37.422;2023-11-22T06:04:41;17.15;;;7.85;;
28802;SDS011;15949;55.656;37.422;2023-11-22T06:09:47;18.58;;;7.18;;
28802;SDS011;15949;55.656;37.422;2023-11-22T06:14:52;20.67;;;9.13;;
28802;SDS011;15949;55.656;37.422;2023-11-22T06:19:58;20.50;;;8.65;;
28802;SDS011;15949;55.656;37.422;2023-11-22T06:25:04;16.38;;;8.45;;
28802;SDS011;15949;55.656;37.422;2023-11-22T06:30:11;18.48;;;7.75;;
28802;SDS011;15949;55.656;37.422;2023-11-22T06:35:16;18.02;;;8.13;;
28802;SDS011;15949;55.656;37.422;2023-11-22T06:40:22;13.63;;;6.75;;
28802;SDS011;15949;55.656;37.422;2023-11-22T06:45:28;14.77;;;7.03;;
28802;SDS011;15949;55.656;37.422;2023-11-22T06:50:34;13.63;;;5.22;;
28802;SDS011;15949;55.656;37.422;2023-11-22T06:55:39;11.55;;;5.35;;
28802;SDS011;15949;55.656;37.422;2023-11-22T07:00:45;11.98;;;5.40;;
28802;SDS011;15949;55.656;37.422;2023-11-22T07:05:51;8.60;;;4.07;;
28802;SDS011;15949;55.656;37.422;2023-11-22T07:10:56;7.03;;;2.95;;
28802;SDS011;15949;55.656;37.422;2023-11-22T07:16:02;7.15;;;2.95;;
28802;SDS011;15949;55.656;37.422;2023-11-22T07:21:09;9.57;;;2.83;;
28802;SDS011;15949;55.656;37.422;2023-11-22T07:26:14;11.23;;;2.83;;
28802;SDS011;15949;55.656;37.422;2023-11-22T07:31:20;7.60;;;2.63;;
28802;SDS011;15949;55.656;37.422;2023-11-22T07:36:26;7.90;;;2.72;;
28802;SDS011;15949;55.656;37.422;2023-11-22T07:41:33;6.15;;;3.25;;
28802;SDS011;15949;55.656;37.422;2023-11-22T07:46:41;8.48;;;3.75;;
28802;SDS011;15949;55.656;37.422;2023-11-22T07:51:48;8.43;;;2.95;;
28802;SDS011;15949;55.656;37.422;2023-11-22T07:56:57;4.93;;;2.87;;
28802;SDS011;15949;55.656;37.422;2023-11-22T08:02:03;7.22;;;3.75;;
28802;SDS011;15949;55.656;37.422;2023-11-22T08:07:16;10.32;;;3.58;;
28802;SDS011;15949;55.656;37.422;2023-11-22T08:12:22;8.50;;;3.30;;
28802;SDS011;15949;55.656;37.422;2023-11-22T08:17:28;5.18;;;2.90;;
28802;SDS011;15949;55.656;37.422;2023-11-22T08:22:34;4.10;;;2.47;;
28802;SDS011;15949;55.656;37.422;2023-11-22T08:27:40;3.83;;;2.20;;
28802;SDS011;15949;55.656;37.422;2023-11-22T08:32:46;8.05;;;2.35;;
28802;SDS011;15949;55.656;37.422;2023-11-22T08:37:58;13.65;;;5.28;;
28802;SDS011;15949;55.656;37.422;2023-11-22T08:43:06;12.65;;;5.95;;
28802;SDS011;15949;55.656;37.422;2023-11-22T08:48:11;10.88;;;4.90;;
28802;SDS011;15949;55.656;37.422;2023-11-22T08:53:20;12.83;;;5.30;;
28802;SDS011;15949;55.656;37.422;2023-11-22T08:58:25;7.00;;;3.65;;
28802;SDS011;15949;55.656;37.422;2023-11-22T09:03:34;5.60;;;3.60;;
28802;SDS011;15949;55.656;37.422;2023-11-22T09:08:39;8.88;;;3.42;;
28802;SDS011;15949;55.656;37.422;2023-11-22T09:13:45;5.68;;;2.90;;
28802;SDS011;15949;55.656;37.422;2023-11-22T09:18:51;9.80;;;2.83;;
28802;SDS011;15949;55.656;37.422;2023-11-22T09:23:56;5.78;;;2.90;;
28802;SDS011;15949;55.656;37.422;2023-11-22T09:29:02;14.63;;;2.78;;
28802;SDS011;15949;55.656;37.422;2023-11-22T09:34:08;5.40;;;2.60;;
28802;SDS011;15949;55.656;37.422;2023-11-22T09:39:14;4.57;;;2.30;;
28802;SDS011;15949;55.656;37.422;2023-11-22T09:44:26;6.95;;;2.53;;
28802;SDS011;15949;55.656;37.422;2023-11-22T09:49:32;5.65;;;2.50;;
28802;SDS011;15949;55.656;37.422;2023-11-22T09:54:40;4.22;;;2.42;;
28802;SDS011;15949;55.656;37.422;2023-11-22T09:59:45;7.03;;;2.65;;
28802;SDS011;15949;55.656;37.422;2023-11-22T10:04:56;7.93;;;2.10;;
28802;SDS011;15949;55.656;37.422;2023-11-22T10:10:02;2.95;;;2.20;;
28802;SDS011;15949;55.656;37.422;2023-11-22T10:15:14;3.92;;;2.00;;
28802;SDS011;15949;55.656;37.422;2023-11-22T10:20:22;3.63;;;2.40;;
28802;SDS011;15949;55.656;37.422;2023-11-22T10:25:28;4.40;;;2.40;;
28802;SDS011;15949;55.656;37.422;2023-11-22T10:30:34;16.88;;;4.13;;
28802;SDS011;15949;55.656;37.422;2023-11-22T10:35:47;7.88;;;3.40;;
28802;SDS011;15949;55.656;37.422;2023-11-22T10:40:54;10.65;;;3.33;;
28802;SDS011;15949;55.656;37.422;2023-11-22T10:46:01;5.68;;;3.45;;
28802;SDS011;15949;55.656;37.422;2023-11-22T10:51:08;6.95;;;3.08;;
28802;SDS011;15949;55.656;37.422;2023-11-22T10:56:19;14.60;;;3.40;;
28802;SDS011;15949;55.656;37.422;2023-11-22T11:01:25;8.38;;;3.53;;
28802;SDS011;15949;55.656;37.422;2023-11-22T11:06:34;7.80;;;2.88;;
28802;SDS011;15949;55.656;37.422;2023-11-22T11:11:41;4.93;;;2.47;;
28802;SDS011;15949;55.656;37.422;2023-11-22T11:16:47;5.35;;;2.58;;
28802;SDS011;15949;55.656;37.422;2023-11-22T11:21:55;5.40;;;2.70;;
28802;SDS011;15949;55.656;37.422;2023-11-22T11:27:02;6.22;;;2.78;;
28802;SDS011;15949;55.656;37.422;2023-11-22T11:32:13;6.38;;;2.70;;
28802;SDS011;15949;55.656;37.422;2023-11-22T11:37:34;6.00;;;2.83;;
28802;SDS011;15949;55.656;37.422;2023-11-22T11:42:42;5.35;;;2.58;;
28802;SDS011;15949;55.656;37.422;2023-11-22T11:47:48;6.20;;;3.38;;
28802;SDS011;15949;55.656;37.422;2023-11-22T11:52:54;7.15;;;3.40;;
28802;SDS011;15949;55.656;37.422;2023-11-22T11:58:04;8.55;;;3.60;;
28802;SDS011;15949;55.656;37.422;2023-11-22T12:03:12;10.77;;;3.03;;
28802;SDS011;15949;55.656;37.422;2023-11-22T12:08:18;6.95;;;3.35;;
28802;SDS011;15949;55.656;37.422;2023-11-22T12:13:25;11.25;;;3.90;;
28802;SDS011;15949;55.656;37.422;2023-11-22T12:18:49;12.15;;;4.20;;
28802;SDS011;15949;55.656;37.422;2023-11-22T12:23:55;14.30;;;5.07;;
28802;SDS011;15949;55.656;37.422;2023-11-22T12:29:01;8.73;;;4.28;;
28802;SDS011;15949;55.656;37.422;2023-11-22T12:34:06;8.98;;;4.53;;
28802;SDS011;15949;55.656;37.422;2023-11-22T12:39:13;8.88;;;4.53;;
28802;SDS011;15949;55.656;37.422;2023-11-22T12:44:27;11.18;;;4.38;;
28802;SDS011;15949;55.656;37.422;2023-11-22T12:49:33;9.10;;;4.90;;
28802;SDS011;15949;55.656;37.422;2023-11-22T12:54:48;13.27;;;5.07;;
28802;SDS011;15949;55.656;37.422;2023-11-22T12:59:54;11.30;;;5.65;;
28802;SDS011;15949;55.656;37.422;2023-11-22T13:04:59;10.70;;;4.80;;
28802;SDS011;15949;55.656;37.422;2023-11-22T13:10:05;13.55;;;5.60;;
28802;SDS011;15949;55.656;37.422;2023-11-22T13:15:11;11.25;;;5.38;;
28802;SDS011;15949;55.656;37.422;2023-11-22T13:20:17;13.00;;;6.22;;
28802;SDS011;15949;55.656;37.422;2023-11-22T13:25:25;16.58;;;6.50;;
28802;SDS011;15949;55.656;37.422;2023-11-22T13:30:31;11.68;;;5.38;;
28802;SDS011;15949;55.656;37.422;2023-11-22T13:35:36;8.55;;;5.00;;
28802;SDS011;15949;55.656;37.422;2023-11-22T13:45:51;11.23;;;5.28;;
28802;SDS011;15949;55.656;37.422;2023-11-22T13:50:57;10.20;;;5.20;;
28802;SDS011;15949;55.656;37.422;2023-11-22T13:56:05;10.15;;;4.80;;
28802;SDS011;15949;55.656;37.422;2023-11-22T14:01:14;12.55;;;4.82;;
28802;SDS011;15949;55.656;37.422;2023-11-22T14:06:26;12.73;;;4.68;;
28802;SDS011;15949;55.656;37.422;2023-11-22T14:11:31;20.30;;;4.65;;
28802;SDS011;15949;55.656;37.422;2023-11-22T14:16:38;9.82;;;4.65;;
28802;SDS011;15949;55.656;37.422;2023-11-22T14:21:46;11.52;;;4.97;;
28802;SDS011;15949;55.656;37.422;2023-11-22T14:26:52;9.60;;;5.10;;
28802;SDS011;15949;55.656;37.422;2023-11-22T14:31:57;12.38;;;4.85;;
28802;SDS011;15949;55.656;37.422;2023-11-22T14:37:04;9.48;;;4.85;;
28802;SDS011;15949;55.656;37.422;2023-11-22T14:42:10;12.05;;;5.88;;
28802;SDS011;15949;55.656;37.422;2023-11-22T14:47:16;12.82;;;6.32;;
28802;SDS011;15949;55.656;37.422;2023-11-22T14:52:28;15.95;;;6.38;;
28802;SDS011;15949;55.656;37.422;2023-11-22T14:57:33;18.33;;;6.65;;
28802;SDS011;15949;55.656;37.422;2023-11-22T15:02:40;16.23;;;6.82;;
28802;SDS011;15949;55.656;37.422;2023-11-22T15:07:47;15.07;;;7.57;;
28802;SDS011;15949;55.656;37.422;2023-11-22T15:12:59;14.60;;;6.75;;
28802;SDS011;15949;55.656;37.422;2023-11-22T15:18:05;17.08;;;6.85;;
28802;SDS011;15949;55.656;37.422;2023-11-22T15:23:10;14.40;;;7.45;;
28802;SDS011;15949;55.656;37.422;2023-11-22T15:28:16;14.85;;;6.30;;
28802;SDS011;15949;55.656;37.422;2023-11-22T15:33:27;17.63;;;7.53;;
28802;SDS011;15949;55.656;37.422;2023-11-22T15:38:34;16.20;;;6.78;;
28802;SDS011;15949;55.656;37.422;2023-11-22T15:43:43;25.23;;;8.15;;
28802;SDS011;15949;55.656;37.422;2023-11-22T15:48:49;17.92;;;7.75;;
28802;SDS011;15949;55.656;37.422;2023-11-22T15:53:54;15.10;;;6.95;;
28802;SDS011;15949;55.656;37.422;2023-11-22T15:59:00;15.80;;;6.78;;
28802;SDS011;15949;55.656;37.422;2023-11-22T16:04:06;14.20;;;7.13;;
28802;SDS011;15949;55.656;37.422;2023-11-22T16:09:12;17.75;;;7.00;;
28802;SDS011;15949;55.656;37.422;2023-11-22T16:14:18;14.27;;;7.05;;
28802;SDS011;15949;55.656;37.422;2023-11-22T16:19:24;15.88;;;6.88;;
28802;SDS011;15949;55.656;37.422;2023-11-22T16:24:30;15.57;;;6.72;;
28802;SDS011;15949;55.656;37.422;2023-11-22T16:29:35;14.77;;;7.47;;
28802;SDS011;15949;55.656;37.422;2023-11-22T16:34:42;18.15;;;6.95;;
28802;SDS011;15949;55.656;37.422;2023-11-22T16:39:47;15.43;;;7.72;;
28802;SDS011;15949;55.656;37.422;2023-11-22T16:44:53;15.45;;;8.05;;
28802;SDS011;15949;55.656;37.422;2023-11-22T16:49:58;20.63;;;8.40;;
28802;SDS011;15949;55.656;37.422;2023-11-22T16:55:04;16.27;;;7.78;;
28802;SDS011;15949;55.656;37.422;2023-11-22T17:00:12;16.45;;;8.43;;
28802;SDS011;15949;55.656;37.422;2023-11-22T17:05:22;17.33;;;8.20;;
28802;SDS011;15949;55.656;37.422;2023-11-22T17:10:28;18.80;;;8.10;;
28802;SDS011;15949;55.656;37.422;2023-11-22T17:15:33;20.95;;;9.63;;
28802;SDS011;15949;55.656;37.422;2023-11-22T17:20:39;19.23;;;8.43;;
28802;SDS011;15949;55.656;37.422;2023-11-22T17:25:45;16.92;;;7.82;;
28802;SDS011;15949;55.656;37.422;2023-11-22T17:30:50;14.88;;;7.38;;
28802;SDS011;15949;55.656;37.422;2023-11-22T17:35:56;19.08;;;8.40;;
28802;SDS011;15949;55.656;37.422;2023-11-22T17:41:01;21.17;;;8.25;;
28802;SDS011;15949;55.656;37.422;2023-11-22T17:46:07;15.50;;;7.40;;
28802;SDS011;15949;55.656;37.422;2023-11-22T17:51:13;15.95;;;7.75;;
28802;SDS011;15949;55.656;37.422;2023-11-22T17:56:19;15.85;;;8.35;;
28802;SDS011;15949;55.656;37.422;2023-11-22T18:01:24;19.83;;;7.80;;
28802;SDS011;15949;55.656;37.422;2023-11-22T18:06:39;13.63;;;7.25;;
28802;SDS011;15949;55.656;37.422;2023-11-22T18:11:52;13.18;;;6.75;;
28802;SDS011;15949;55.656;37.422;2023-11-22T18:16:57;13.75;;;7.80;;
28802;SDS011;15949;55.656;37.422;2023-11-22T18:22:03;18.30;;;7.70;;
28802;SDS011;15949;55.656;37.422;2023-11-22T18:27:08;14.85;;;7.20;;
28802;SDS011;15949;55.656;37.422;2023-11-22T18:32:14;17.58;;;8.05;;
28802;SDS011;15949;55.656;37.422;2023-11-22T18:37:20;16.45;;;7.30;;
28802;SDS011;15949;55.656;37.422;2023-11-22T18:42:26;15.27;;;6.47;;
28802;SDS011;15949;55.656;37.422;2023-11-22T18:47:32;11.32;;;5.88;;
28802;SDS011;15949;55.656;37.422;2023-11-22T18:52:37;13.82;;;6.32;;
28802;SDS011;15949;55.656;37.422;2023-11-22T18:57:43;12.32;;;6.70;;
28802;SDS011;15949;55.656;37.422;2023-11-22T19:02:49;14.32;;;6.25;;
28802;SDS011;15949;55.656;37.422;2023-11-22T19:07:55;13.65;;;6.50;;
28802;SDS011;15949;55.656;37.422;2023-11-22T19:13:02;12.20;;;6.25;;
28802;SDS011;15949;55.656;37.422;2023-11-22T19:18:09;14.05;;;6.35;;
28802;SDS011;15949;55.656;37.422;2023-11-22T19:23:14;11.40;;;5.88;;
28802;SDS011;15949;55.656;37.422;2023-11-22T19:28:20;10.25;;;5.82;;
28802;SDS011;15949;55.656;37.422;2023-11-22T19:33:26;10.80;;;5.72;;
28802;SDS011;15949;55.656;37.422;2023-11-22T19:38:31;10.90;;;4.90;;
28802;SDS011;15949;55.656;37.422;2023-11-22T19:43:38;10.23;;;5.13;;
28802;SDS011;15949;55.656;37.422;2023-11-22T19:48:44;6.53;;;4.05;;
28802;SDS011;15949;55.656;37.422;2023-11-22T19:53:50;7.15;;;3.78;;
28802;SDS011;15949;55.656;37.422;2023-11-22T19:58:55;5.88;;;3.30;;
28802;SDS011;15949;55.656;37.422;2023-11-22T20:04:01;3.72;;;2.63;;
28802;SDS011;15949;55.656;37.422;2023-11-22T20:09:07;3.45;;;2.30;;
28802;SDS011;15949;55.656;37.422;2023-11-22T20:14:12;3.97;;;2.50;;
28802;SDS011;15949;55.656;37.422;2023-11-22T20:19:18;7.88;;;2.35;;
28802;SDS011;15949;55.656;37.422;2023-11-22T20:24:24;6.10;;;2.38;;
28802;SDS011;15949;55.656;37.422;2023-11-22T20:29:30;3.20;;;2.20;;
28802;SDS011;15949;55.656;37.422;2023-11-22T20:34:36;3.58;;;2.30;;
28802;SDS011;15949;55.656;37.422;2023-11-22T20:39:42;3.78;;;2.38;;
28802;SDS011;15949;55.656;37.422;2023-11-22T20:44:48;3.35;;;2.17;;
28802;SDS011;15949;55.656;37.422;2023-11-22T20:49:54;3.38;;;2.28;;
28802;SDS011;15949;55.656;37.422;2023-11-22T20:54:59;4.25;;;2.50;;
28802;SDS011;15949;55.656;37.422;2023-11-22T21:00:06;3.95;;;1.90;;
28802;SDS011;15949;55.656;37.422;2023-11-22T21:05:15;2.83;;;1.48;;
28802;SDS011;15949;55.656;37.422;2023-11-22T21:10:21;3.17;;;1.95;;
28802;SDS011;15949;55.656;37.422;2023-11-22T21:15:26;3.25;;;2.10;;
28802;SDS011;15949;55.656;37.422;2023-11-22T21:20:33;3.58;;;2.05;;
28802;SDS011;15949;55.656;37.422;2023-11-22T21:25:38;3.08;;;2.03;;
28802;SDS011;15949;55.656;37.422;2023-11-22T21:30:44;2.47;;;1.77;;
28802;SDS011;15949;55.656;37.422;2023-11-22T21:35:50;4.00;;;2.35;;
28802;SDS011;15949;55.656;37.422;2023-11-22T21:40:56;4.53;;;2.53;;
28802;SDS011;15949;55.656;37.422;2023-11-22T21:46:02;3.70;;;2.40;;
28802;SDS011;15949;55.656;37.422;2023-11-22T21:51:08;2.75;;;2.08;;
28802;SDS011;15949;55.656;37.422;2023-11-22T21:56:13;8.27;;;2.30;;
28802;SDS011;15949;55.656;37.422;2023-11-22T22:01:19;5.38;;;2.35;;
28802;SDS011;15949;55.656;37.422;2023-11-22T22:06:24;3.20;;;2.20;;
28802;SDS011;15949;55.656;37.422;2023-11-22T22:11:30;3.60;;;2.15;;
28802;SDS011;15949;55.656;37.422;2023-11-22T22:16:36;3.17;;;2.10;;
28802;SDS011;15949;55.656;37.422;2023-11-22T22:21:42;3.08;;;2.00;;
28802;SDS011;15949;55.656;37.422;2023-11-22T22:26:48;3.22;;;2.03;;
28802;SDS011;15949;55.656;37.422;2023-11-22T22:31:54;3.63;;;2.17;;
28802;SDS011;15949;55.656;37.422;2023-11-22T22:36:59;3.35;;;2.05;;
28802;SDS011;15949;55.656;37.422;2023-11-22T22:42:05;2.45;;;1.83;;
28802;SDS011;15949;55.656;37.422;2023-11-22T22:47:11;3.20;;;1.88;;
28802;SDS011;15949;55.656;37.422;2023-11-22T22:52:16;2.75;;;1.70;;
28802;SDS011;15949;55.656;37.422;2023-11-22T22:57:22;2.42;;;1.70;;
28802;SDS011;15949;55.656;37.422;2023-11-22T23:02:27;3.47;;;1.88;;
28802;SDS011;15949;55.656;37.422;2023-11-22T23:07:33;3.60;;;1.92;;
28802;SDS011;15949;55.656;37.422;2023-11-22T23:12:38;3.65;;;1.70;;
28802;SDS011;15949;55.656;37.422;2023-11-22T23:17:44;2.53;;;1.83;;
28802;SDS011;15949;55.656;37.422;2023-11-22T23:22:50;2.65;;;1.63;;
28802;SDS011;15949;55.656;37.422;2023-11-22T23:27:56;3.33;;;2.00;;
28802;SDS011;15949;55.656;37.422;2023-11-22T23:33:02;3.42;;;2.00;;
28802;SDS011;15949;55.656;37.422;2023-11-22T23:38:07;4.93;;;2.17;;
28802;SDS011;15949;55.656;37.422;2023-11-22T23:43:13;2.53;;;1.95;;
28802;SDS011;15949;55.656;37.422;2023-11-22T23:48:18;3.58;;;2.38;;
28802;SDS011;15949;55.656;37.422;2023-11-22T23:53:24;3.70;;;2.47;;
28802;SDS011;15949;55.656;37.422;2023-11-22T23:58:30;4.75;;;2.63;;
